Eagle San Antonio — 9V9330 — position and weather

sailwx.info

Track history (hours):
 
Tides and Currents Weather Stations Pressure Air Temp Water Temp Dewpoint Dewpoint Depression Visibility Wind Speed Wind Dir Waves Ship Positions

Eagle San Antonio

Last reported at 2016-Feb-06 22:33 UTC. Time now 2016-Feb-11 13:01 UTC.
Position N 38°28' W 074°44'.

Length 274 m; draft 9.3 m.

Type: Ship. MMSI: 566453000.

Date/timePositionNaut miles runAvg speedWind from/ knotsBaromVisibWave heightAir tempDewpointWater temp
2016-Feb-06 22:33N 38°28' W 074°44'1111.4
2016-Feb-06 21:33N 38°37' W 074°53'9 9.4
2016-Feb-06 20:33N 38°45' W 074°60'9 9.1
2016-Feb-06 19:33N 38°52' W 075°06'1514.6
2016-Feb-06 18:33N 39°06' W 075°12'1616.0
2016-Feb-06 17:33N 39°19' W 075°24'1414.2
2016-Feb-06 16:33N 39°32' W 075°33'1211.9
2016-Feb-06 15:33N 39°43' W 075°30'7 6.9
2016-Feb-06 14:32N 39°48' W 075°24'0 0.0
2016-Feb-06 13:32N 39°48' W 075°24'0 0.0
2016-Feb-06 12:32N 39°48' W 075°24'0 0.2
2016-Feb-06 11:32N 39°48' W 075°24'0 0.1
2016-Feb-06 10:32N 39°48' W 075°24'0 0.0
2016-Feb-06 09:32N 39°48' W 075°24'0 0.0
2016-Feb-06 08:32N 39°48' W 075°24'0 0.0
2016-Feb-06 07:32N 39°48' W 075°24'0 0.0
2016-Feb-06 06:32N 39°48' W 075°24'0 0.1
2016-Feb-06 05:32N 39°48' W 075°24'0 0.2
2016-Feb-06 04:32N 39°48' W 075°24'0 0.0
2016-Feb-06 03:32N 39°48' W 075°24'0 0.0
2016-Feb-06 02:32N 39°48' W 075°24'2 1.8
2016-Feb-06 01:33N 39°50' W 075°22'5 4.9
2016-Feb-06 00:33N 39°51' W 075°16'0 0.0
2016-Feb-05 23:32N 39°51' W 075°16'0 0.0
2016-Feb-05 22:32N 39°51' W 075°16'0 0.0
2016-Feb-05 21:32N 39°51' W 075°16'0 0.0
2016-Feb-05 20:32N 39°51' W 075°16'0 0.0
2016-Feb-05 19:32N 39°51' W 075°16'0 0.0
2016-Feb-05 18:32N 39°51' W 075°16'0 0.0
2016-Feb-05 17:32N 39°51' W 075°16'0 0.0
2016-Feb-05 16:32N 39°51' W 075°16'0 0.0
2016-Feb-05 15:32N 39°51' W 075°16'0 0.0
2016-Feb-05 14:32N 39°51' W 075°16'0 0.0
2016-Feb-05 13:32N 39°51' W 075°16'0 0.0
2016-Feb-05 12:32N 39°51' W 075°16'0 0.0
2016-Feb-05 11:32N 39°51' W 075°16'0 0.0
2016-Feb-05 10:32N 39°51' W 075°16'0 0.0
2016-Feb-05 09:32N 39°51' W 075°16'0 0.0
2016-Feb-05 08:32N 39°51' W 075°16'0 0.0
2016-Feb-05 07:29N 39°51' W 075°16'0 0.0
2016-Feb-05 06:32N 39°51' W 075°16'0 0.0
2016-Feb-05 05:29N 39°51' W 075°16'0 0.0
2016-Feb-05 04:29N 39°51' W 075°16'0 0.0
2016-Feb-05 03:32N 39°51' W 075°16'0 0.0
2016-Feb-05 02:32N 39°51' W 075°16'0 0.0
2016-Feb-05 01:32N 39°51' W 075°16'0 0.0
2016-Feb-05 00:32N 39°51' W 075°16'0 0.0
2016-Feb-04 23:32N 39°51' W 075°16'0 0.0
2016-Feb-04 22:29N 39°51' W 075°16'0 0.0
2016-Feb-04 21:29N 39°51' W 075°16'0 0.0
2016-Feb-04 20:32N 39°51' W 075°16'0 0.0
2016-Feb-04 19:32N 39°51' W 075°16'0 0.0
2016-Feb-04 18:32N 39°51' W 075°16'0 0.0
2016-Feb-04 17:33N 39°51' W 075°16'1 1.2
2016-Feb-04 16:33N 39°51' W 075°18'6 5.5
2016-Feb-04 15:31N 39°48' W 075°24'0 0.2
2016-Feb-04 14:31N 39°48' W 075°24'0 0.0
2016-Feb-04 13:31N 39°48' W 075°24'0 0.0
2016-Feb-04 12:31N 39°48' W 075°24'0 0.0
2016-Feb-04 11:31N 39°48' W 075°24'0 0.0
2016-Feb-04 10:31N 39°48' W 075°24'0 0.2
2016-Feb-04 09:31N 39°48' W 075°24'0 0.1
2016-Feb-04 08:31N 39°48' W 075°24'0 0.0
2016-Feb-04 07:31N 39°48' W 075°24'0 0.0
2016-Feb-04 06:31N 39°48' W 075°24'0 0.0
2016-Feb-04 05:28N 39°48' W 075°24'0 0.0
2016-Feb-04 04:31N 39°48' W 075°24'0 0.1
2016-Feb-04 03:31N 39°48' W 075°24'0 0.2
2016-Feb-04 02:31N 39°48' W 075°24'0 0.0
2016-Feb-04 01:31N 39°48' W 075°24'0 0.0
2016-Feb-04 00:31N 39°48' W 075°24'0 0.0
2016-Feb-03 23:31N 39°48' W 075°24'0 0.1
2016-Feb-03 22:16N 39°48' W 075°24'0 0.1
2016-Feb-03 21:31N 39°48' W 075°24'0 0.1
2016-Feb-03 20:31N 39°48' W 075°24'0 0.0
2016-Feb-03 19:31N 39°48' W 075°24'0 0.0
2016-Feb-03 18:31N 39°48' W 075°24'0 0.0
2016-Feb-03 17:31N 39°48' W 075°24'0 0.0
2016-Feb-03 16:31N 39°48' W 075°24'0 0.0
2016-Feb-03 15:31N 39°48' W 075°24'0 0.2
2016-Feb-03 14:31N 39°48' W 075°24'0 0.0
2016-Feb-03 13:31N 39°48' W 075°24'0 0.0
2016-Feb-03 12:31N 39°48' W 075°24'0 0.1
2016-Feb-03 11:31N 39°48' W 075°24'0 0.1
2016-Feb-03 10:31N 39°49' W 075°24'0 0.0
2016-Feb-03 09:31N 39°48' W 075°24'0 0.3
2016-Feb-03 08:31N 39°48' W 075°24'0 0.0
2016-Feb-03 07:31N 39°48' W 075°24'0 0.0
2016-Feb-03 06:31N 39°48' W 075°24'0 0.0
2016-Feb-03 05:31N 39°48' W 075°24'0 0.0
2016-Feb-03 04:31N 39°48' W 075°24'0 0.0
2016-Feb-03 03:31N 39°48' W 075°24'0 0.1
2016-Feb-03 02:31N 39°48' W 075°24'0 0.2
2016-Feb-03 01:31N 39°48' W 075°24'0 0.0
2016-Feb-03 00:31N 39°48' W 075°24'0 0.0
2016-Feb-02 23:31N 39°48' W 075°24'0 0.0
2016-Feb-02 22:31N 39°48' W 075°24'0 0.0
2016-Feb-02 21:31N 39°48' W 075°24'0 0.2
2016-Feb-02 20:31N 39°48' W 075°24'0 0.1
2016-Feb-02 19:31N 39°48' W 075°24'0 0.0
2016-Feb-02 18:31N 39°48' W 075°24'0 0.0
2016-Feb-02 17:31N 39°48' W 075°24'0 0.0
2016-Feb-02 16:31N 39°48' W 075°24'0 0.0
2016-Feb-02 15:31N 39°48' W 075°24'0 0.0
2016-Feb-02 14:31N 39°48' W 075°24'0 0.2
2016-Feb-02 13:31N 39°48' W 075°24'0 0.1
2016-Feb-02 12:31N 39°48' W 075°24'0 0.0
2016-Feb-02 11:34N 39°48' W 075°24'0 0.0
2016-Feb-02 10:31N 39°48' W 075°24'0 0.1
2016-Feb-02 09:31N 39°49' W 075°24'0 0.0
2016-Feb-02 08:31N 39°48' W 075°24'0 0.3
2016-Feb-02 07:31N 39°48' W 075°24'0 0.1
2016-Feb-02 06:31N 39°48' W 075°25'0 0.0
2016-Feb-02 05:31N 39°48' W 075°25'0 0.0
2016-Feb-02 04:31N 39°48' W 075°24'0 0.0
2016-Feb-02 03:31N 39°48' W 075°25'0 0.0
2016-Feb-02 02:31N 39°48' W 075°24'0 0.3
2016-Feb-02 01:31N 39°48' W 075°24'0 0.0
2016-Feb-02 00:31N 39°48' W 075°24'0 0.0
2016-Feb-01 23:31N 39°48' W 075°24'0 0.0
2016-Feb-01 22:31N 39°48' W 075°24'0 0.0
2016-Feb-01 21:31N 39°49' W 075°24'0 0.0
2016-Feb-01 20:31N 39°48' W 075°24'0 0.2
2016-Feb-01 19:31N 39°48' W 075°24'0 0.2
2016-Feb-01 18:31N 39°48' W 075°24'0 0.1
2016-Feb-01 17:31N 39°48' W 075°24'0 0.0
2016-Feb-01 16:31N 39°48' W 075°24'0 0.0
2016-Feb-01 15:31N 39°48' W 075°24'0 0.0
2016-Feb-01 14:31N 39°48' W 075°24'0 0.0
2016-Feb-01 13:31N 39°48' W 075°24'0 0.3
2016-Feb-01 12:31N 39°48' W 075°24'0 0.0
2016-Feb-01 11:31N 39°48' W 075°24'0 0.0
2016-Feb-01 10:31N 39°48' W 075°24'0 0.0
2016-Feb-01 09:31N 39°48' W 075°24'0 0.0
2016-Feb-01 08:28N 39°48' W 075°24'0 0.0
2016-Feb-01 07:31N 39°48' W 075°24'0 0.2
2016-Feb-01 06:31N 39°48' W 075°24'0 0.1
2016-Feb-01 05:31N 39°48' W 075°24'0 0.1
2016-Feb-01 04:31N 39°48' W 075°24'0 0.0
2016-Feb-01 03:31N 39°48' W 075°24'0 0.0
2016-Feb-01 02:31N 39°48' W 075°24'0 0.0
2016-Feb-01 01:31N 39°48' W 075°24'0 0.3
2016-Feb-01 00:31N 39°48' W 075°24'0 0.1
2016-Jan-31 23:31N 39°48' W 075°24'0 0.0
2016-Jan-31 22:31N 39°48' W 075°24'0 0.0
2016-Jan-31 21:31N 39°48' W 075°24'0 0.0
2016-Jan-31 20:31N 39°48' W 075°24'0 0.0
2016-Jan-31 19:31N 39°48' W 075°24'0 0.2
2016-Jan-31 18:31N 39°48' W 075°24'0 0.1
2016-Jan-31 17:31N 39°48' W 075°24'0 0.0
2016-Jan-31 16:31N 39°48' W 075°24'0 0.0
2016-Jan-31 15:31N 39°48' W 075°24'0 0.0
2016-Jan-31 14:31N 39°48' W 075°24'0 0.0
2016-Jan-31 13:31N 39°48' W 075°24'0 0.3
2016-Jan-31 12:31N 39°48' W 075°24'0 0.0
2016-Jan-31 11:31N 39°48' W 075°24'0 0.0
2016-Jan-31 10:31N 39°48' W 075°24'0 0.0
2016-Jan-31 09:31N 39°48' W 075°24'0 0.0
2016-Jan-31 08:31N 39°48' W 075°24'0 0.0
2016-Jan-31 07:31N 39°48' W 075°24'0 0.2
2016-Jan-31 06:16N 39°48' W 075°24'0 0.1
2016-Jan-31 05:31N 39°48' W 075°24'0 0.0
2016-Jan-31 04:31N 39°48' W 075°24'0 0.0
2016-Jan-31 03:31N 39°48' W 075°24'0 0.0
2016-Jan-31 02:31N 39°48' W 075°24'0 0.0
2016-Jan-31 01:31N 39°48' W 075°24'0 0.0
2016-Jan-31 00:31N 39°48' W 075°24'0 0.3
2016-Jan-30 23:31N 39°49' W 075°24'0 0.1
2016-Jan-30 22:31N 39°49' W 075°24'0 0.0
2016-Jan-30 21:31N 39°49' W 075°24'0 0.0
2016-Jan-30 20:33N 39°49' W 075°24'1 0.5
2016-Jan-30 19:33N 39°48' W 075°25'6 6.4
2016-Jan-30 18:33N 39°44' W 075°30'1110.6
2016-Jan-30 17:33N 39°33' W 075°32'1212.5
2016-Jan-30 16:34N 39°21' W 075°27'1413.9
2016-Jan-30 15:33N 39°10' W 075°16'1313.4
2016-Jan-30 14:33N 38°59' W 075°08'4 4.2
2016-Jan-30 13:33N 38°55' W 075°09'0 0.2
2016-Jan-30 12:31N 38°55' W 075°09'0 0.0
2016-Jan-30 11:31N 38°55' W 075°09'0 0.0
2016-Jan-30 10:31N 38°55' W 075°09'0 0.0
2016-Jan-30 09:31N 38°55' W 075°09'0 0.0
2016-Jan-30 08:31N 38°55' W 075°09'0 0.1
2016-Jan-30 07:31N 38°55' W 075°09'0 0.2
2016-Jan-30 06:31N 38°55' W 075°09'0 0.1
2016-Jan-30 05:31N 38°55' W 075°09'0 0.1
2016-Jan-30 04:31N 38°55' W 075°09'0 0.1
2016-Jan-30 03:31N 38°55' W 075°09'0 0.0
2016-Jan-30 02:31N 38°55' W 075°09'0 0.0
2016-Jan-30 01:31N 38°55' W 075°09'0 0.0
2016-Jan-30 00:31N 38°55' W 075°09'0 0.0
2016-Jan-29 23:31N 38°55' W 075°09'0 0.0
2016-Jan-29 22:31N 38°55' W 075°09'0 0.0
2016-Jan-29 21:31N 38°55' W 075°09'0 0.0
2016-Jan-29 20:31N 38°55' W 075°09'0 0.1
2016-Jan-29 19:31N 38°55' W 075°09'0 0.1
2016-Jan-29 18:31N 38°55' W 075°09'0 0.1
2016-Jan-29 17:31N 38°55' W 075°09'0 0.2
2016-Jan-29 16:31N 38°55' W 075°09'0 0.0
2016-Jan-29 15:31N 38°55' W 075°09'0 0.0
2016-Jan-29 14:31N 38°55' W 075°09'0 0.2
2016-Jan-29 13:31N 38°55' W 075°09'0 0.2
2016-Jan-29 12:31N 38°55' W 075°09'0 0.0
2016-Jan-29 11:31N 38°55' W 075°09'0 0.0
2016-Jan-29 10:31N 38°55' W 075°09'0 0.0
2016-Jan-29 09:31N 38°55' W 075°09'0 0.0
2016-Jan-29 08:31N 38°55' W 075°09'0 0.0
2016-Jan-29 07:31N 38°55' W 075°09'0 0.3
2016-Jan-29 06:31N 38°55' W 075°09'0 0.1
2016-Jan-29 05:31N 38°55' W 075°09'0 0.0
2016-Jan-29 04:31N 38°55' W 075°09'0 0.0
2016-Jan-29 03:31N 38°55' W 075°09'0 0.0
2016-Jan-29 02:31N 38°55' W 075°09'0 0.0
2016-Jan-29 01:31N 38°55' W 075°09'0 0.3
2016-Jan-29 00:31N 38°55' W 075°09'0 0.1
2016-Jan-28 23:31N 38°55' W 075°09'0 0.0
2016-Jan-28 22:31N 38°55' W 075°09'0 0.0
2016-Jan-28 21:31N 38°55' W 075°09'0 0.0
2016-Jan-28 20:31N 38°55' W 075°09'0 0.0
2016-Jan-28 19:31N 38°55' W 075°09'0 0.2
2016-Jan-28 18:31N 38°55' W 075°09'0 0.2
2016-Jan-28 17:31N 38°55' W 075°09'0 0.0
2016-Jan-28 16:31N 38°55' W 075°09'0 0.0
2016-Jan-28 15:31N 38°55' W 075°09'0 0.0
2016-Jan-28 14:31N 38°55' W 075°09'0 0.0
2016-Jan-28 13:31N 38°55' W 075°09'0 0.1
2016-Jan-28 12:31N 38°55' W 075°09'0 0.3
2016-Jan-28 11:31N 38°55' W 075°09'0 0.0
2016-Jan-28 10:31N 38°55' W 075°09'0 0.0
2016-Jan-28 09:31N 38°55' W 075°09'0 0.0
2016-Jan-28 08:31N 38°55' W 075°09'0 0.0
2016-Jan-28 07:28N 38°55' W 075°09'0 0.1
2016-Jan-28 06:31N 38°55' W 075°09'0 0.2
2016-Jan-28 05:31N 38°55' W 075°09'0 0.1
2016-Jan-28 04:31N 38°55' W 075°09'0 0.0
2016-Jan-28 03:31N 38°55' W 075°09'0 0.0
2016-Jan-28 02:31N 38°55' W 075°09'0 0.0
2016-Jan-28 01:31N 38°55' W 075°09'0 0.3
2016-Jan-28 00:31N 38°55' W 075°09'0 0.1
2016-Jan-27 23:31N 38°55' W 075°09'  
Track history (hours):
 
Tides and Currents Weather Stations Pressure Air Temp Water Temp Dewpoint Dewpoint Depression Visibility Wind Speed Wind Dir Waves Ship Positions

Eagle San Antonio

Last reported at 2016-Feb-06 22:33 UTC. Time now 2016-Feb-11 13:01 UTC.
Position N 38°28' W 074°44'.

Length 274 m; draft 9.3 m.

Type: Ship. MMSI: 566453000.

Date/timePositionNaut miles runAvg speedWind from/ knotsBaromVisibWave heightAir tempDewpointWater temp
2016-Feb-06 22:33N 38°28' W 074°44'1111.4
2016-Feb-06 21:33N 38°37' W 074°53'9 9.4
2016-Feb-06 20:33N 38°45' W 074°60'9 9.1
2016-Feb-06 19:33N 38°52' W 075°06'1514.6
2016-Feb-06 18:33N 39°06' W 075°12'1616.0
2016-Feb-06 17:33N 39°19' W 075°24'1414.2
2016-Feb-06 16:33N 39°32' W 075°33'1211.9
2016-Feb-06 15:33N 39°43' W 075°30'7 6.9
2016-Feb-06 14:32N 39°48' W 075°24'0 0.0
2016-Feb-06 13:32N 39°48' W 075°24'0 0.0
2016-Feb-06 12:32N 39°48' W 075°24'0 0.2
2016-Feb-06 11:32N 39°48' W 075°24'0 0.1
2016-Feb-06 10:32N 39°48' W 075°24'0 0.0
2016-Feb-06 09:32N 39°48' W 075°24'0 0.0
2016-Feb-06 08:32N 39°48' W 075°24'0 0.0
2016-Feb-06 07:32N 39°48' W 075°24'0 0.0
2016-Feb-06 06:32N 39°48' W 075°24'0 0.1
2016-Feb-06 05:32N 39°48' W 075°24'0 0.2
2016-Feb-06 04:32N 39°48' W 075°24'0 0.0
2016-Feb-06 03:32N 39°48' W 075°24'0 0.0
2016-Feb-06 02:32N 39°48' W 075°24'2 1.8
2016-Feb-06 01:33N 39°50' W 075°22'5 4.9
2016-Feb-06 00:33N 39°51' W 075°16'0 0.0
2016-Feb-05 23:32N 39°51' W 075°16'0 0.0
2016-Feb-05 22:32N 39°51' W 075°16'0 0.0
2016-Feb-05 21:32N 39°51' W 075°16'0 0.0
2016-Feb-05 20:32N 39°51' W 075°16'0 0.0
2016-Feb-05 19:32N 39°51' W 075°16'0 0.0
2016-Feb-05 18:32N 39°51' W 075°16'0 0.0
2016-Feb-05 17:32N 39°51' W 075°16'0 0.0
2016-Feb-05 16:32N 39°51' W 075°16'0 0.0
2016-Feb-05 15:32N 39°51' W 075°16'0 0.0
2016-Feb-05 14:32N 39°51' W 075°16'0 0.0
2016-Feb-05 13:32N 39°51' W 075°16'0 0.0
2016-Feb-05 12:32N 39°51' W 075°16'0 0.0
2016-Feb-05 11:32N 39°51' W 075°16'0 0.0
2016-Feb-05 10:32N 39°51' W 075°16'0 0.0
2016-Feb-05 09:32N 39°51' W 075°16'0 0.0
2016-Feb-05 08:32N 39°51' W 075°16'0 0.0
2016-Feb-05 07:29N 39°51' W 075°16'0 0.0
2016-Feb-05 06:32N 39°51' W 075°16'0 0.0
2016-Feb-05 05:29N 39°51' W 075°16'0 0.0
2016-Feb-05 04:29N 39°51' W 075°16'0 0.0
2016-Feb-05 03:32N 39°51' W 075°16'0 0.0
2016-Feb-05 02:32N 39°51' W 075°16'0 0.0
2016-Feb-05 01:32N 39°51' W 075°16'0 0.0
2016-Feb-05 00:32N 39°51' W 075°16'0 0.0
2016-Feb-04 23:32N 39°51' W 075°16'0 0.0
2016-Feb-04 22:29N 39°51' W 075°16'0 0.0
2016-Feb-04 21:29N 39°51' W 075°16'0 0.0
2016-Feb-04 20:32N 39°51' W 075°16'0 0.0
2016-Feb-04 19:32N 39°51' W 075°16'0 0.0
2016-Feb-04 18:32N 39°51' W 075°16'0 0.0
2016-Feb-04 17:33N 39°51' W 075°16'1 1.2
2016-Feb-04 16:33N 39°51' W 075°18'6 5.5
2016-Feb-04 15:31N 39°48' W 075°24'0 0.2
2016-Feb-04 14:31N 39°48' W 075°24'0 0.0
2016-Feb-04 13:31N 39°48' W 075°24'0 0.0
2016-Feb-04 12:31N 39°48' W 075°24'0 0.0
2016-Feb-04 11:31N 39°48' W 075°24'0 0.0
2016-Feb-04 10:31N 39°48' W 075°24'0 0.2
2016-Feb-04 09:31N 39°48' W 075°24'0 0.1
2016-Feb-04 08:31N 39°48' W 075°24'0 0.0
2016-Feb-04 07:31N 39°48' W 075°24'0 0.0
2016-Feb-04 06:31N 39°48' W 075°24'0 0.0
2016-Feb-04 05:28N 39°48' W 075°24'0 0.0
2016-Feb-04 04:31N 39°48' W 075°24'0 0.1
2016-Feb-04 03:31N 39°48' W 075°24'0 0.2
2016-Feb-04 02:31N 39°48' W 075°24'0 0.0
2016-Feb-04 01:31N 39°48' W 075°24'0 0.0
2016-Feb-04 00:31N 39°48' W 075°24'0 0.0
2016-Feb-03 23:31N 39°48' W 075°24'0 0.1
2016-Feb-03 22:16N 39°48' W 075°24'0 0.1
2016-Feb-03 21:31N 39°48' W 075°24'0 0.1
2016-Feb-03 20:31N 39°48' W 075°24'0 0.0
2016-Feb-03 19:31N 39°48' W 075°24'0 0.0
2016-Feb-03 18:31N 39°48' W 075°24'0 0.0
2016-Feb-03 17:31N 39°48' W 075°24'0 0.0
2016-Feb-03 16:31N 39°48' W 075°24'0 0.0
2016-Feb-03 15:31N 39°48' W 075°24'0 0.2
2016-Feb-03 14:31N 39°48' W 075°24'0 0.0
2016-Feb-03 13:31N 39°48' W 075°24'0 0.0
2016-Feb-03 12:31N 39°48' W 075°24'0 0.1
2016-Feb-03 11:31N 39°48' W 075°24'0 0.1
2016-Feb-03 10:31N 39°49' W 075°24'0 0.0
2016-Feb-03 09:31N 39°48' W 075°24'0 0.3
2016-Feb-03 08:31N 39°48' W 075°24'0 0.0
2016-Feb-03 07:31N 39°48' W 075°24'0 0.0
2016-Feb-03 06:31N 39°48' W 075°24'0 0.0
2016-Feb-03 05:31N 39°48' W 075°24'0 0.0
2016-Feb-03 04:31N 39°48' W 075°24'0 0.0
2016-Feb-03 03:31N 39°48' W 075°24'0 0.1
2016-Feb-03 02:31N 39°48' W 075°24'0 0.2
2016-Feb-03 01:31N 39°48' W 075°24'0 0.0
2016-Feb-03 00:31N 39°48' W 075°24'0 0.0
2016-Feb-02 23:31N 39°48' W 075°24'0 0.0
2016-Feb-02 22:31N 39°48' W 075°24'0 0.0
2016-Feb-02 21:31N 39°48' W 075°24'0 0.2
2016-Feb-02 20:31N 39°48' W 075°24'0 0.1
2016-Feb-02 19:31N 39°48' W 075°24'0 0.0
2016-Feb-02 18:31N 39°48' W 075°24'0 0.0
2016-Feb-02 17:31N 39°48' W 075°24'0 0.0
2016-Feb-02 16:31N 39°48' W 075°24'0 0.0
2016-Feb-02 15:31N 39°48' W 075°24'0 0.0
2016-Feb-02 14:31N 39°48' W 075°24'0 0.2
2016-Feb-02 13:31N 39°48' W 075°24'0 0.1
2016-Feb-02 12:31N 39°48' W 075°24'0 0.0
2016-Feb-02 11:34N 39°48' W 075°24'0 0.0
2016-Feb-02 10:31N 39°48' W 075°24'0 0.1
2016-Feb-02 09:31N 39°49' W 075°24'0 0.0
2016-Feb-02 08:31N 39°48' W 075°24'0 0.3
2016-Feb-02 07:31N 39°48' W 075°24'0 0.1
2016-Feb-02 06:31N 39°48' W 075°25'0 0.0
2016-Feb-02 05:31N 39°48' W 075°25'0 0.0
2016-Feb-02 04:31N 39°48' W 075°24'0 0.0
2016-Feb-02 03:31N 39°48' W 075°25'0 0.0
2016-Feb-02 02:31N 39°48' W 075°24'0 0.3
2016-Feb-02 01:31N 39°48' W 075°24'0 0.0
2016-Feb-02 00:31N 39°48' W 075°24'0 0.0
2016-Feb-01 23:31N 39°48' W 075°24'0 0.0
2016-Feb-01 22:31N 39°48' W 075°24'0 0.0
2016-Feb-01 21:31N 39°49' W 075°24'0 0.0
2016-Feb-01 20:31N 39°48' W 075°24'0 0.2
2016-Feb-01 19:31N 39°48' W 075°24'0 0.2
2016-Feb-01 18:31N 39°48' W 075°24'0 0.1
2016-Feb-01 17:31N 39°48' W 075°24'0 0.0
2016-Feb-01 16:31N 39°48' W 075°24'0 0.0
2016-Feb-01 15:31N 39°48' W 075°24'0 0.0
2016-Feb-01 14:31N 39°48' W 075°24'0 0.0
2016-Feb-01 13:31N 39°48' W 075°24'0 0.3
2016-Feb-01 12:31N 39°48' W 075°24'0 0.0
2016-Feb-01 11:31N 39°48' W 075°24'0 0.0
2016-Feb-01 10:31N 39°48' W 075°24'0 0.0
2016-Feb-01 09:31N 39°48' W 075°24'0 0.0
2016-Feb-01 08:28N 39°48' W 075°24'0 0.0
2016-Feb-01 07:31N 39°48' W 075°24'0 0.2
2016-Feb-01 06:31N 39°48' W 075°24'0 0.1
2016-Feb-01 05:31N 39°48' W 075°24'0 0.1
2016-Feb-01 04:31N 39°48' W 075°24'0 0.0
2016-Feb-01 03:31N 39°48' W 075°24'0 0.0
2016-Feb-01 02:31N 39°48' W 075°24'0 0.0
2016-Feb-01 01:31N 39°48' W 075°24'0 0.3
2016-Feb-01 00:31N 39°48' W 075°24'0 0.1
2016-Jan-31 23:31N 39°48' W 075°24'0 0.0
2016-Jan-31 22:31N 39°48' W 075°24'0 0.0
2016-Jan-31 21:31N 39°48' W 075°24'0 0.0
2016-Jan-31 20:31N 39°48' W 075°24'0 0.0
2016-Jan-31 19:31N 39°48' W 075°24'0 0.2
2016-Jan-31 18:31N 39°48' W 075°24'0 0.1
2016-Jan-31 17:31N 39°48' W 075°24'0 0.0
2016-Jan-31 16:31N 39°48' W 075°24'0 0.0
2016-Jan-31 15:31N 39°48' W 075°24'0 0.0
2016-Jan-31 14:31N 39°48' W 075°24'0 0.0
2016-Jan-31 13:31N 39°48' W 075°24'0 0.3
2016-Jan-31 12:31N 39°48' W 075°24'0 0.0
2016-Jan-31 11:31N 39°48' W 075°24'0 0.0
2016-Jan-31 10:31N 39°48' W 075°24'0 0.0
2016-Jan-31 09:31N 39°48' W 075°24'0 0.0
2016-Jan-31 08:31N 39°48' W 075°24'0 0.0
2016-Jan-31 07:31N 39°48' W 075°24'0 0.2
2016-Jan-31 06:16N 39°48' W 075°24'0 0.1
2016-Jan-31 05:31N 39°48' W 075°24'0 0.0
2016-Jan-31 04:31N 39°48' W 075°24'0 0.0
2016-Jan-31 03:31N 39°48' W 075°24'0 0.0
2016-Jan-31 02:31N 39°48' W 075°24'0 0.0
2016-Jan-31 01:31N 39°48' W 075°24'0 0.0
2016-Jan-31 00:31N 39°48' W 075°24'0 0.3
2016-Jan-30 23:31N 39°49' W 075°24'0 0.1
2016-Jan-30 22:31N 39°49' W 075°24'0 0.0
2016-Jan-30 21:31N 39°49' W 075°24'0 0.0
2016-Jan-30 20:33N 39°49' W 075°24'1 0.5
2016-Jan-30 19:33N 39°48' W 075°25'6 6.4
2016-Jan-30 18:33N 39°44' W 075°30'1110.6
2016-Jan-30 17:33N 39°33' W 075°32'1212.5
2016-Jan-30 16:34N 39°21' W 075°27'1413.9
2016-Jan-30 15:33N 39°10' W 075°16'1313.4
2016-Jan-30 14:33N 38°59' W 075°08'4 4.2
2016-Jan-30 13:33N 38°55' W 075°09'0 0.2
2016-Jan-30 12:31N 38°55' W 075°09'0 0.0
2016-Jan-30 11:31N 38°55' W 075°09'0 0.0
2016-Jan-30 10:31N 38°55' W 075°09'0 0.0
2016-Jan-30 09:31N 38°55' W 075°09'0 0.0
2016-Jan-30 08:31N 38°55' W 075°09'0 0.1
2016-Jan-30 07:31N 38°55' W 075°09'0 0.2
2016-Jan-30 06:31N 38°55' W 075°09'0 0.1
2016-Jan-30 05:31N 38°55' W 075°09'0 0.1
2016-Jan-30 04:31N 38°55' W 075°09'0 0.1
2016-Jan-30 03:31N 38°55' W 075°09'0 0.0
2016-Jan-30 02:31N 38°55' W 075°09'0 0.0
2016-Jan-30 01:31N 38°55' W 075°09'0 0.0
2016-Jan-30 00:31N 38°55' W 075°09'0 0.0
2016-Jan-29 23:31N 38°55' W 075°09'0 0.0
2016-Jan-29 22:31N 38°55' W 075°09'0 0.0
2016-Jan-29 21:31N 38°55' W 075°09'0 0.0
2016-Jan-29 20:31N 38°55' W 075°09'0 0.1
2016-Jan-29 19:31N 38°55' W 075°09'0 0.1
2016-Jan-29 18:31N 38°55' W 075°09'0 0.1
2016-Jan-29 17:31N 38°55' W 075°09'0 0.2
2016-Jan-29 16:31N 38°55' W 075°09'0 0.0
2016-Jan-29 15:31N 38°55' W 075°09'0 0.0
2016-Jan-29 14:31N 38°55' W 075°09'0 0.2
2016-Jan-29 13:31N 38°55' W 075°09'0 0.2
2016-Jan-29 12:31N 38°55' W 075°09'0 0.0
2016-Jan-29 11:31N 38°55' W 075°09'0 0.0
2016-Jan-29 10:31N 38°55' W 075°09'0 0.0
2016-Jan-29 09:31N 38°55' W 075°09'0 0.0
2016-Jan-29 08:31N 38°55' W 075°09'0 0.0
2016-Jan-29 07:31N 38°55' W 075°09'0 0.3
2016-Jan-29 06:31N 38°55' W 075°09'0 0.1
2016-Jan-29 05:31N 38°55' W 075°09'0 0.0
2016-Jan-29 04:31N 38°55' W 075°09'0 0.0
2016-Jan-29 03:31N 38°55' W 075°09'0 0.0
2016-Jan-29 02:31N 38°55' W 075°09'0 0.0
2016-Jan-29 01:31N 38°55' W 075°09'0 0.3
2016-Jan-29 00:31N 38°55' W 075°09'0 0.1
2016-Jan-28 23:31N 38°55' W 075°09'0 0.0
2016-Jan-28 22:31N 38°55' W 075°09'0 0.0
2016-Jan-28 21:31N 38°55' W 075°09'0 0.0
2016-Jan-28 20:31N 38°55' W 075°09'0 0.0
2016-Jan-28 19:31N 38°55' W 075°09'0 0.2
2016-Jan-28 18:31N 38°55' W 075°09'0 0.2
2016-Jan-28 17:31N 38°55' W 075°09'0 0.0
2016-Jan-28 16:31N 38°55' W 075°09'0 0.0
2016-Jan-28 15:31N 38°55' W 075°09'0 0.0
2016-Jan-28 14:31N 38°55' W 075°09'0 0.0
2016-Jan-28 13:31N 38°55' W 075°09'0 0.1
2016-Jan-28 12:31N 38°55' W 075°09'0 0.3
2016-Jan-28 11:31N 38°55' W 075°09'0 0.0
2016-Jan-28 10:31N 38°55' W 075°09'0 0.0
2016-Jan-28 09:31N 38°55' W 075°09'0 0.0
2016-Jan-28 08:31N 38°55' W 075°09'0 0.0
2016-Jan-28 07:28N 38°55' W 075°09'0 0.1
2016-Jan-28 06:31N 38°55' W 075°09'0 0.2
2016-Jan-28 05:31N 38°55' W 075°09'0 0.1
2016-Jan-28 04:31N 38°55' W 075°09'0 0.0
2016-Jan-28 03:31N 38°55' W 075°09'0 0.0
2016-Jan-28 02:31N 38°55' W 075°09'0 0.0
2016-Jan-28 01:31N 38°55' W 075°09'0 0.3
2016-Jan-28 00:31N 38°55' W 075°09'0 0.1
2016-Jan-27 23:31N 38°55' W 075°09'  

Dump ship's entire track history